createdAt,value
2022-11-28T00:02:04.115Z,3.72
2022-11-28T00:04:43.052Z,7.20
2022-11-28T00:07:12.836Z,5.60
2022-11-28T00:09:56.371Z,7.40
2022-11-28T00:12:24.382Z,5.55
2022-11-28T00:14:51.464Z,6.03
2022-11-28T00:17:18.581Z,5.70
2022-11-28T00:19:45.824Z,5.05
2022-11-28T00:22:17.101Z,4.40
2022-11-28T00:24:44.646Z,6.07
2022-11-28T00:27:12.381Z,4.85
2022-11-28T00:29:40.512Z,5.57
2022-11-28T00:32:07.708Z,4.72
2022-11-28T00:34:35.111Z,6.40
2022-11-28T00:37:02.289Z,3.88
2022-11-28T00:39:29.952Z,3.70
2022-11-28T00:41:57.084Z,4.15
2022-11-28T00:44:25.040Z,5.93
2022-11-28T00:46:52.259Z,4.65
2022-11-28T00:49:19.600Z,3.63
2022-11-28T00:51:49.779Z,5.28
2022-11-28T00:54:16.911Z,5.15
2022-11-28T00:56:44.505Z,4.50
2022-11-28T00:59:11.625Z,4.55
2022-11-28T01:01:41.920Z,5.00
2022-11-28T01:04:11.217Z,6.00
2022-11-28T01:06:43.549Z,6.20
2022-11-28T01:09:14.330Z,4.53
2022-11-28T01:11:43.629Z,7.45
2022-11-28T01:14:11.681Z,7.63
2022-11-28T01:16:39.616Z,4.35
2022-11-28T01:19:07.126Z,5.32
2022-11-28T01:21:35.272Z,5.82
2022-11-28T01:24:02.831Z,6.85
2022-11-28T01:26:30.936Z,4.75
2022-11-28T01:29:00.134Z,5.03
2022-11-28T01:31:30.083Z,5.13
2022-11-28T01:33:57.813Z,3.22
2022-11-28T01:36:25.642Z,3.75
2022-11-28T01:38:54.105Z,5.90
2022-11-28T01:41:24.922Z,4.53
2022-11-28T01:44:03.966Z,5.32
2022-11-28T01:46:32.231Z,4.68
2022-11-28T01:49:05.462Z,5.60
2022-11-28T01:54:00.867Z,4.85
2022-11-28T01:56:36.225Z,8.02
2022-11-28T01:59:07.543Z,6.50
2022-11-28T02:01:35.168Z,5.95
2022-11-28T02:04:04.547Z,7.32
2022-11-28T02:06:32.807Z,4.68
2022-11-28T02:09:00.170Z,6.15
2022-11-28T02:11:45.139Z,7.60
2022-11-28T02:14:21.459Z,6.43
2022-11-28T02:17:08.522Z,5.43
2022-11-28T02:19:56.714Z,4.43
2022-11-28T02:22:56.182Z,4.93
2022-11-28T02:25:47.720Z,4.25
2022-11-28T02:28:31.672Z,5.85
2022-11-28T02:31:26.618Z,5.25
2022-11-28T02:34:07.231Z,8.50
2022-11-28T02:36:42.658Z,5.35
2022-11-28T02:39:13.733Z,4.95
2022-11-28T02:41:52.677Z,7.80
2022-11-28T02:44:53.423Z,5.72
2022-11-28T02:47:45.550Z,4.00
2022-11-28T02:50:19.297Z,7.63
2022-11-28T02:52:51.894Z,6.00
2022-11-28T02:55:20.172Z,9.23
2022-11-28T02:57:52.053Z,3.85
2022-11-28T03:00:37.381Z,6.38
2022-11-28T03:03:41.390Z,5.75
2022-11-28T03:06:23.039Z,8.52
2022-11-28T03:10:06.861Z,6.25
2022-11-28T03:13:02.839Z,4.93
2022-11-28T03:15:41.519Z,5.30
2022-11-28T03:19:16.222Z,6.22
2022-11-28T03:23:16.080Z,7.30
2022-11-28T03:26:05.928Z,5.20
2022-11-28T03:29:23.102Z,6.45
2022-11-28T03:32:53.643Z,4.55
2022-11-28T03:35:25.692Z,5.55
2022-11-28T03:38:13.315Z,5.85
2022-11-28T03:40:51.332Z,7.45
2022-11-28T03:44:27.723Z,5.05
2022-11-28T03:47:58.321Z,5.43
2022-11-28T03:50:35.435Z,6.03
2022-11-28T03:54:13.830Z,3.38
2022-11-28T03:56:54.380Z,6.75
2022-11-28T03:59:35.271Z,5.40
2022-11-28T04:02:39.065Z,5.05
2022-11-28T04:05:26.436Z,4.13
2022-11-28T04:08:04.030Z,6.60
2022-11-28T04:11:27.949Z,4.75
2022-11-28T04:14:35.517Z,6.70
2022-11-28T04:17:25.344Z,8.38
2022-11-28T04:20:00.870Z,4.65
2022-11-28T04:22:42.507Z,6.78
2022-11-28T04:25:13.806Z,7.32
2022-11-28T04:28:04.408Z,8.27
2022-11-28T04:30:32.645Z,4.60
2022-11-28T04:33:04.228Z,5.47
2022-11-28T04:35:38.355Z,6.57
2022-11-28T04:38:12.355Z,6.63
2022-11-28T04:40:55.134Z,5.05
2022-11-28T04:43:30.200Z,5.55
2022-11-28T04:46:07.540Z,8.48
2022-11-28T04:48:48.299Z,4.50
2022-11-28T04:51:45.157Z,6.88
2022-11-28T04:54:21.609Z,12.18
2022-11-28T04:57:18.053Z,8.48
2022-11-28T04:59:47.526Z,5.60
2022-11-28T05:02:18.043Z,9.30
2022-11-28T05:04:45.682Z,5.85
2022-11-28T05:07:12.886Z,7.80
2022-11-28T05:09:40.198Z,6.50
2022-11-28T05:12:07.570Z,5.18
2022-11-28T05:14:34.826Z,6.80
2022-11-28T05:17:02.140Z,7.55
2022-11-28T05:19:29.268Z,7.00
2022-11-28T05:21:56.480Z,8.07
2022-11-28T05:24:26.761Z,6.88
2022-11-28T05:26:56.457Z,5.75
2022-11-28T05:29:25.665Z,7.13
2022-11-28T05:31:52.959Z,6.72
2022-11-28T05:34:20.219Z,5.82
2022-11-28T05:36:47.405Z,7.90
2022-11-28T05:39:14.696Z,8.65
2022-11-28T05:41:42.025Z,10.88
2022-11-28T05:44:10.406Z,8.48
2022-11-28T05:46:37.831Z,7.28
2022-11-28T05:49:05.101Z,6.63
2022-11-28T05:51:32.388Z,6.97
2022-11-28T05:53:59.560Z,7.07
2022-11-28T05:56:26.749Z,8.57
2022-11-28T05:58:54.434Z,6.70
2022-11-28T06:01:27.237Z,8.65
2022-11-28T06:04:00.163Z,8.15
2022-11-28T06:06:30.403Z,10.45
2022-11-28T06:08:57.827Z,9.07
2022-11-28T06:11:26.989Z,15.10
2022-11-28T06:13:54.414Z,8.50
2022-11-28T06:16:24.898Z,8.90
2022-11-28T06:18:59.776Z,7.80
2022-11-28T06:21:28.201Z,8.05
2022-11-28T06:23:56.515Z,9.60
2022-11-28T06:26:25.237Z,8.52
2022-11-28T06:28:52.592Z,10.48
2022-11-28T06:31:22.228Z,7.93
2022-11-28T06:33:50.262Z,9.82
2022-11-28T06:36:57.231Z,9.07
2022-11-28T06:39:24.659Z,8.65
2022-11-28T06:41:51.825Z,7.50
2022-11-28T06:44:19.161Z,10.48
2022-11-28T06:46:46.436Z,11.48
2022-11-28T06:49:14.450Z,8.98
2022-11-28T06:51:42.637Z,10.75
2022-11-28T06:54:09.983Z,9.52
2022-11-28T06:56:37.749Z,8.98
2022-11-28T06:59:04.916Z,11.38
2022-11-28T07:01:32.765Z,15.52
2022-11-28T07:04:00.225Z,15.60
2022-11-28T07:06:28.314Z,12.95
2022-11-28T07:08:59.651Z,9.20
2022-11-28T07:11:30.428Z,17.05
2022-11-28T07:13:59.173Z,13.57
2022-11-28T07:16:32.584Z,13.00
2022-11-28T07:21:28.418Z,18.88
2022-11-28T07:23:55.742Z,14.70
2022-11-28T07:26:24.045Z,17.15
2022-11-28T07:28:51.848Z,16.38
2022-11-28T07:31:22.570Z,26.13
2022-11-28T07:33:51.394Z,34.30
2022-11-28T07:36:21.949Z,42.03
2022-11-28T07:38:55.272Z,26.25
2022-11-28T07:43:56.673Z,33.25
2022-11-28T07:46:25.133Z,24.45
2022-11-28T07:48:52.654Z,26.58
2022-11-28T07:51:27.003Z,19.50
2022-11-28T07:53:54.665Z,17.65
2022-11-28T07:56:24.100Z,16.02
2022-11-28T07:58:51.403Z,12.48
2022-11-28T08:01:26.976Z,122.18
2022-11-28T08:03:54.584Z,103.90
2022-11-28T08:06:27.214Z,164.88
2022-11-28T08:08:55.549Z,130.20
2022-11-28T08:11:25.561Z,77.72
2022-11-28T08:13:56.350Z,43.80
2022-11-28T08:16:28.037Z,57.73
2022-11-28T08:18:56.165Z,51.13
2022-11-28T08:21:27.013Z,28.45
2022-11-28T08:23:56.333Z,18.95
2022-11-28T08:26:29.297Z,12.60
2022-11-28T08:28:59.207Z,10.85
2022-11-28T08:31:32.334Z,6.35
2022-11-28T08:34:02.169Z,9.13
2022-11-28T08:36:31.689Z,11.20
2022-11-28T08:39:23.009Z,6.53
2022-11-28T08:41:50.149Z,21.05
2022-11-28T08:44:17.374Z,87.25
2022-11-28T08:46:44.617Z,30.83
2022-11-28T08:49:11.744Z,61.10
2022-11-28T08:51:38.979Z,58.78
2022-11-28T08:54:06.270Z,85.20
2022-11-28T08:56:34.442Z,39.78
2022-11-28T08:59:01.724Z,25.58
2022-11-28T09:01:29.193Z,24.35
2022-11-28T09:03:57.188Z,17.50
2022-11-28T09:06:25.312Z,30.20
2022-11-28T09:08:52.803Z,22.17
2022-11-28T09:11:21.750Z,18.67
2022-11-28T09:13:49.733Z,11.05
2022-11-28T09:16:17.295Z,13.75
2022-11-28T09:18:44.774Z,5.32
2022-11-28T09:21:14.061Z,7.72
2022-11-28T09:23:43.717Z,25.40
2022-11-28T09:26:16.500Z,26.63
2022-11-28T09:28:44.225Z,13.38
2022-11-28T09:31:13.237Z,11.50
2022-11-28T09:33:41.006Z,12.02
2022-11-28T09:36:10.757Z,15.40
2022-11-28T09:38:38.244Z,10.25
2022-11-28T09:41:29.380Z,15.60
2022-11-28T09:44:03.521Z,15.40
2022-11-28T09:46:34.880Z,24.80
2022-11-28T09:49:09.704Z,21.92
2022-11-28T09:52:12.318Z,15.43
2022-11-28T09:55:02.598Z,11.50
2022-11-28T09:57:39.427Z,16.92
2022-11-28T10:00:17.094Z,8.80
2022-11-28T10:03:14.375Z,10.93
2022-11-28T10:06:02.010Z,15.45
2022-11-28T10:09:01.136Z,16.65
2022-11-28T10:11:49.940Z,18.73
2022-11-28T10:14:23.322Z,26.98
2022-11-28T10:16:58.255Z,17.85
2022-11-28T10:19:53.931Z,17.92
2022-11-28T10:23:04.397Z,26.00
2022-11-28T10:25:40.812Z,13.73
2022-11-28T10:28:15.852Z,15.10
2022-11-28T10:30:49.003Z,15.90
2022-11-28T10:33:24.454Z,15.70
2022-11-28T10:35:56.264Z,13.88
2022-11-28T10:38:27.572Z,13.10
2022-11-28T10:41:33.289Z,15.32
2022-11-28T10:44:22.645Z,14.63
2022-11-28T10:47:04.580Z,12.32
2022-11-28T10:49:43.767Z,5.97
2022-11-28T10:52:11.196Z,10.90
2022-11-28T10:54:44.048Z,12.10
2022-11-28T10:57:40.037Z,18.42
2022-11-28T11:00:18.547Z,21.75
2022-11-28T11:02:57.184Z,19.10
2022-11-28T11:05:36.152Z,21.05
2022-11-28T11:08:11.938Z,23.13
2022-11-28T11:10:49.633Z,19.48
2022-11-28T11:13:28.306Z,9.25
2022-11-28T11:16:11.647Z,21.05
2022-11-28T11:18:59.171Z,16.67
2022-11-28T11:21:28.001Z,12.80
2022-11-28T11:24:17.686Z,21.75
2022-11-28T11:26:47.470Z,8.93
2022-11-28T11:29:27.435Z,10.27
2022-11-28T11:31:55.385Z,14.38
2022-11-28T11:34:24.466Z,15.23
2022-11-28T11:36:51.981Z,16.80
2022-11-28T11:39:20.449Z,15.60
2022-11-28T11:42:10.271Z,20.05
2022-11-28T11:44:38.123Z,14.40
2022-11-28T11:47:07.086Z,22.90
2022-11-28T11:49:42.583Z,17.70
2022-11-28T11:52:15.804Z,17.83
2022-11-28T11:54:54.003Z,19.75
2022-11-28T11:57:33.208Z,7.97
2022-11-28T12:00:10.660Z,8.95
2022-11-28T12:02:44.949Z,12.00
2022-11-28T12:05:19.473Z,9.18
2022-11-28T12:08:05.510Z,18.00
2022-11-28T12:10:41.151Z,19.23
2022-11-28T12:13:20.437Z,13.57
2022-11-28T12:16:08.872Z,13.52
2022-11-28T12:19:03.408Z,17.98
2022-11-28T12:22:03.459Z,28.83
2022-11-28T12:24:36.903Z,16.63
2022-11-28T12:27:31.285Z,18.20
2022-11-28T12:30:15.542Z,11.23
2022-11-28T12:32:54.810Z,8.80
2022-11-28T12:35:32.885Z,15.68
2022-11-28T12:38:10.723Z,16.15
2022-11-28T12:40:57.661Z,26.75
2022-11-28T12:43:38.636Z,21.98
2022-11-28T12:46:23.995Z,16.15
2022-11-28T12:49:14.501Z,16.70
2022-11-28T12:52:18.391Z,22.73
2022-11-28T12:54:54.296Z,20.38
2022-11-28T12:57:39.852Z,15.55
2022-11-28T13:00:15.141Z,14.40
2022-11-28T13:03:06.936Z,15.23
2022-11-28T13:05:52.296Z,16.40
2022-11-28T13:08:48.201Z,9.52
2022-11-28T13:11:47.253Z,15.68
2022-11-28T13:14:23.610Z,18.27
2022-11-28T13:16:53.426Z,11.65
2022-11-28T13:19:38.840Z,13.60
2022-11-28T13:22:20.632Z,31.35
2022-11-28T13:25:12.344Z,9.90
2022-11-28T13:28:01.145Z,10.10
2022-11-28T13:30:36.095Z,28.13
2022-11-28T13:33:12.128Z,16.95
2022-11-28T13:35:43.067Z,13.80
2022-11-28T13:38:36.677Z,16.17
2022-11-28T13:41:43.329Z,22.65
2022-11-28T13:44:35.629Z,16.08
2022-11-28T13:47:28.134Z,24.75
2022-11-28T13:50:26.017Z,16.13
2022-11-28T13:53:10.469Z,15.82
2022-11-28T13:55:41.639Z,14.95
2022-11-28T13:58:32.307Z,8.52
2022-11-28T14:01:10.475Z,13.75
2022-11-28T14:03:48.648Z,17.63
2022-11-28T14:06:25.618Z,27.73
2022-11-28T14:09:47.838Z,20.52
2022-11-28T14:12:36.082Z,13.02
2022-11-28T14:15:24.814Z,12.07
2022-11-28T14:18:02.309Z,15.10
2022-11-28T14:20:47.968Z,9.77
2022-11-28T14:23:34.118Z,10.07
2022-11-28T14:26:02.149Z,17.25
2022-11-28T14:28:40.389Z,20.08
2022-11-28T14:31:11.337Z,13.02
2022-11-28T14:33:42.991Z,20.27
2022-11-28T14:36:34.772Z,13.15
2022-11-28T14:39:16.701Z,14.18
2022-11-28T14:42:44.048Z,19.33
2022-11-28T14:45:32.910Z,12.50
2022-11-28T14:48:18.668Z,17.23
2022-11-28T14:53:43.797Z,9.77
2022-11-28T14:56:28.557Z,17.98
2022-11-28T14:58:59.144Z,10.30
2022-11-28T15:01:54.523Z,16.92
2022-11-28T15:05:00.786Z,15.48
2022-11-28T15:07:35.633Z,10.13
2022-11-28T15:10:24.182Z,13.15
2022-11-28T15:13:06.921Z,15.88
2022-11-28T15:15:34.789Z,17.80
2022-11-28T15:18:05.021Z,20.63
2022-11-28T15:20:48.730Z,8.05
2022-11-28T15:23:29.491Z,12.63
2022-11-28T15:25:58.414Z,10.77
2022-11-28T15:28:29.075Z,12.00
2022-11-28T15:30:59.491Z,15.07
2022-11-28T15:33:29.845Z,9.15
2022-11-28T15:36:02.685Z,13.77
2022-11-28T15:38:32.139Z,12.85
2022-11-28T15:41:00.844Z,11.63
2022-11-28T15:43:30.818Z,14.90
2022-11-28T15:46:01.378Z,9.48
2022-11-28T15:48:47.308Z,7.88
2022-11-28T15:51:32.935Z,11.90
2022-11-28T15:54:03.639Z,13.68
2022-11-28T15:56:31.024Z,6.68
2022-11-28T15:58:58.264Z,10.20
2022-11-28T16:01:27.681Z,14.45
2022-11-28T16:04:03.752Z,13.65
2022-11-28T16:06:34.435Z,14.50
2022-11-28T16:09:06.761Z,4.63
2022-11-28T16:11:36.278Z,5.40
2022-11-28T16:14:09.649Z,7.88
2022-11-28T16:19:35.503Z,6.85
2022-11-28T16:22:11.373Z,5.10
2022-11-28T16:24:47.759Z,8.68
2022-11-28T16:27:33.591Z,5.00
2022-11-28T16:30:02.006Z,10.18
2022-11-28T16:32:35.904Z,15.25
2022-11-28T16:35:04.222Z,11.10
2022-11-28T16:37:33.168Z,8.15
2022-11-28T16:40:00.382Z,9.38
2022-11-28T16:42:28.508Z,9.27
2022-11-28T16:44:55.684Z,16.02
2022-11-28T16:47:29.738Z,11.65
2022-11-28T16:50:17.041Z,9.10
2022-11-28T16:52:46.066Z,9.52
2022-11-28T16:55:32.633Z,14.25
2022-11-28T16:58:11.156Z,11.98
2022-11-28T17:00:41.251Z,18.25
2022-11-28T17:03:40.000Z,11.30
2022-11-28T17:06:15.812Z,7.63
2022-11-28T17:08:43.479Z,9.10
2022-11-28T17:11:11.929Z,6.78
2022-11-28T17:13:39.228Z,12.55
2022-11-28T17:16:06.673Z,10.60
2022-11-28T17:18:33.974Z,11.18
2022-11-28T17:21:01.073Z,11.18
2022-11-28T17:23:28.360Z,10.15
2022-11-28T17:25:55.603Z,7.53
2022-11-28T17:28:27.827Z,7.63
2022-11-28T17:33:23.315Z,10.85
2022-11-28T17:35:53.840Z,8.85
2022-11-28T17:38:21.258Z,10.88
2022-11-28T17:40:49.911Z,10.52
2022-11-28T17:43:22.094Z,8.73
2022-11-28T17:45:51.032Z,10.68
2022-11-28T17:48:18.982Z,11.18
2022-11-28T17:50:49.723Z,10.40
2022-11-28T17:53:19.776Z,10.90
2022-11-28T17:55:49.250Z,10.60
2022-11-28T17:58:26.758Z,9.98
2022-11-28T18:01:00.265Z,14.05
2022-11-28T18:03:28.752Z,16.33
2022-11-28T18:05:56.085Z,15.30
2022-11-28T18:08:23.509Z,19.20
2022-11-28T18:11:11.812Z,15.98
2022-11-28T18:13:39.770Z,13.40
2022-11-28T18:16:07.412Z,13.30
2022-11-28T18:18:34.771Z,14.18
2022-11-28T18:21:02.272Z,19.02
2022-11-28T18:23:31.084Z,16.45
2022-11-28T18:25:58.298Z,13.15
2022-11-28T18:28:25.807Z,10.82
2022-11-28T18:30:53.211Z,12.80
2022-11-28T18:33:20.925Z,12.05
2022-11-28T18:35:48.019Z,11.05
2022-11-28T18:38:15.124Z,10.60
2022-11-28T18:40:42.483Z,13.70
2022-11-28T18:43:09.732Z,9.93
2022-11-28T18:45:37.393Z,13.80
2022-11-28T18:48:05.717Z,10.02
2022-11-28T18:50:35.040Z,10.90
2022-11-28T18:53:02.490Z,11.48
2022-11-28T18:55:30.018Z,12.68
2022-11-28T18:57:57.632Z,13.65
2022-11-28T19:00:24.983Z,16.10
2022-11-28T19:02:55.083Z,15.35
2022-11-28T19:05:23.267Z,15.00
2022-11-28T19:07:50.606Z,18.80
2022-11-28T19:10:18.275Z,14.10
2022-11-28T19:12:45.577Z,10.10
2022-11-28T19:15:13.005Z,10.48
2022-11-28T19:17:40.850Z,10.30
2022-11-28T19:20:10.109Z,13.07
2022-11-28T19:22:37.251Z,10.48
2022-11-28T19:25:04.908Z,11.98
2022-11-28T19:27:32.251Z,18.33
2022-11-28T19:29:59.455Z,16.45
2022-11-28T19:32:26.788Z,11.57
2022-11-28T19:34:54.400Z,17.30
2022-11-28T19:37:22.746Z,17.83
2022-11-28T19:39:52.126Z,19.90
2022-11-28T19:42:19.384Z,16.30
2022-11-28T19:44:46.700Z,18.40
2022-11-28T19:47:13.903Z,16.70
2022-11-28T19:49:41.604Z,23.52
2022-11-28T19:52:08.943Z,17.95
2022-11-28T19:54:37.346Z,19.05
2022-11-28T19:57:04.616Z,20.00
2022-11-28T19:59:31.860Z,20.17
2022-11-28T20:01:59.186Z,17.80
2022-11-28T20:04:27.430Z,10.93
2022-11-28T20:06:54.581Z,19.02
2022-11-28T20:09:22.026Z,16.15
2022-11-28T20:11:49.497Z,14.05
2022-11-28T20:14:19.412Z,12.75
2022-11-28T20:16:47.231Z,14.98
2022-11-28T20:19:16.296Z,12.05
2022-11-28T20:21:46.344Z,21.45
2022-11-28T20:24:17.119Z,14.85
2022-11-28T20:26:46.584Z,19.17
2022-11-28T20:29:16.547Z,15.30
2022-11-28T20:31:47.832Z,16.20
2022-11-28T20:34:18.951Z,17.27
2022-11-28T20:36:53.469Z,14.43
2022-11-28T20:39:21.280Z,15.02
2022-11-28T20:41:48.579Z,17.10
2022-11-28T20:44:16.255Z,21.80
2022-11-28T20:46:46.577Z,11.90
2022-11-28T20:49:17.620Z,18.45
2022-11-28T20:51:45.243Z,15.77
2022-11-28T20:54:14.061Z,15.23
2022-11-28T20:57:12.797Z,14.13
2022-11-28T20:59:30.895Z,22.55
2022-11-28T21:01:58.688Z,17.73
2022-11-28T21:04:25.876Z,23.63
2022-11-28T21:06:53.247Z,21.65
2022-11-28T21:09:20.782Z,23.65
2022-11-28T21:11:58.693Z,25.13
2022-11-28T21:14:28.827Z,23.10
2022-11-28T21:16:57.661Z,20.95
2022-11-28T21:19:25.551Z,22.85
2022-11-28T21:21:53.180Z,27.02
2022-11-28T21:24:20.916Z,19.80
2022-11-28T21:26:53.395Z,20.13
2022-11-28T21:29:24.544Z,19.98
2022-11-28T21:31:52.696Z,20.27
2022-11-28T21:34:20.306Z,18.48
2022-11-28T21:36:47.732Z,16.73
2022-11-28T21:39:18.991Z,19.58
2022-11-28T21:41:46.565Z,27.45
2022-11-28T21:44:14.234Z,26.80
2022-11-28T21:46:41.505Z,23.30
2022-11-28T21:49:08.926Z,21.75
2022-11-28T21:51:39.930Z,22.08
2022-11-28T21:54:07.858Z,22.38
2022-11-28T21:56:35.218Z,19.02
2022-11-28T21:59:04.632Z,21.10
2022-11-28T22:01:32.014Z,20.60
2022-11-28T22:04:02.794Z,17.92
2022-11-28T22:06:31.669Z,18.58
2022-11-28T22:09:03.302Z,18.63
2022-11-28T22:11:34.704Z,18.88
2022-11-28T22:14:03.301Z,16.42
2022-11-28T22:16:30.886Z,13.25
2022-11-28T22:19:00.381Z,12.90
2022-11-28T22:24:14.973Z,14.48
2022-11-28T22:26:44.028Z,15.80
2022-11-28T22:29:12.216Z,16.02
2022-11-28T22:31:40.217Z,14.75
2022-11-28T22:34:09.158Z,13.45
2022-11-28T22:36:36.754Z,15.40
2022-11-28T22:39:04.919Z,15.65
2022-11-28T22:41:32.433Z,18.75
2022-11-28T22:44:03.081Z,15.68
2022-11-28T22:46:32.214Z,16.50
2022-11-28T22:49:03.502Z,18.98
2022-11-28T22:51:31.447Z,15.60
2022-11-28T22:54:00.950Z,17.23
2022-11-28T22:56:32.086Z,15.15
2022-11-28T22:59:00.882Z,17.65
2022-11-28T23:01:31.079Z,16.58
2022-11-28T23:03:59.781Z,14.88
2022-11-28T23:06:29.910Z,17.00
2022-11-28T23:08:59.147Z,16.90
2022-11-28T23:11:31.037Z,15.82
2022-11-28T23:13:59.637Z,16.92
2022-11-28T23:16:36.410Z,16.58
2022-11-28T23:19:07.687Z,14.32
2022-11-28T23:21:37.342Z,14.70
2022-11-28T23:24:05.763Z,14.48
2022-11-28T23:26:34.559Z,16.92
2022-11-28T23:29:05.446Z,13.25
2022-11-28T23:31:37.220Z,14.13
2022-11-28T23:34:06.192Z,15.20
2022-11-28T23:36:41.840Z,14.63
2022-11-28T23:39:19.276Z,13.15
2022-11-28T23:41:47.454Z,11.73
2022-11-28T23:44:16.150Z,10.10
2022-11-28T23:46:44.575Z,12.15
2022-11-28T23:49:12.591Z,11.07
2022-11-28T23:51:40.872Z,12.05
2022-11-28T23:54:09.258Z,14.20
2022-11-28T23:56:38.246Z,14.82
2022-11-28T23:59:09.376Z,11.75
